Terminal Aerodrome Forecast
Issued by NWS

Home | Current Version | Previous Version | Text Only | Print | Product List | Glossary On
Versions: 1 2 3 4 5 6 7 8 9 10 11 12 13 14 15 16 17 18 19 20 21 22 23 24 25
000
FTUS43 KGRR 030500
TAFMKG
TAF
KMKG 030540Z 0306/0406 16008KT P6SM BKN150
     FM031200 15012KT 2SM -SN OVC018
     FM031500 17015G23KT 1SM -SN BR OVC009
     FM031800 20014G24KT 3/4SM -SN OVC004=

USA.gov is the U.S. government's official web portal to all federal, state and local government web resources and services.